Strona główna
METAR-TAF:

METAR-TAF

Lotnisko :

Port lotniczy Harare

Harare, Zimbabwe

Szerokość geograficzna: 17-55S, Długość geograficzna: 031-08E, wysokość: 1479 m

Aktualna obserwacja pogody

Raport powstał 10 godziny i 53 minut temu, godzina 09:00 UTC
Wiatr 4 kt z kierunków zmiennych
Temperatura 19°C
Wilgotność 43%
Ciśnienie 1026 hPa
Widzialność 10 km lub więcej
Brak chmur poniżej 1500 m i brak chmur cumulonimbus

METAR: FVHA 250900Z VRB04KT CAVOK 19/06 Q1026 NOSIG

czas: 21:53 (19:53 UTC)

Prognoza

Raport powstał 3 godziny i 53 minut temu, godzina 16:00 UTC
Prognoza ważna od 25 godzina 18 UTC do 26 godzina 24 UTC
Wiatr 7 kt od wschód
Widzialność 10 km lub więcej
Brak chmur poniżej 1500 m i brak chmur cumulonimbus

TAF: FVHA 251600Z 2518/2624 08007KT CAVOK

Obserwacja i prognoza pogody dla ponad 4000 lotnisk (raport METAR i TAF).

Dostępne stacje oznaczono żółtymi i czerwonymi punktami na mapie.

Najedź kursorem aby zobaczyć nazwę stacji.

Kliknij aby zobaczyć obserwacje i prognozy pogody.

Aby zmienić mapę: kliknij na zielony przycisk z czarnym krzyżykiem, aby powiększyć; na zielony przycisk z myślnikiem, aby pomniejszyć; na zielone strzałki, aby przejść do map sąsiednich.


METAR-TAF: